Allentown, New York
Current Conditions -  °F | °C
As of 12:56 AM on Thursday 23 Oct 2014 (Local Time) from KELZ Reporting Station
Overcast Overcast  
Wind Chill: 39°   Ceiling: 600
Heat Index: 43°   Visibility: 10mi
Dew Point: 40°   Wind: 7mph
Humidity: 89%   Direction: 10°N
Pressure: 30.09"   Gusts: NA
Location:  42.08°N, 78.06°W
Report Text: KELZ 230456Z AUTO 01006KT 10SM OVC006 06/04 A3009 RMK AO2 CIG 004V008 SLP201 T00610044 400610050
Loading
Personal Weather Stations






























Interactive Weather Map
Tropical Storm Tracking
New forecast layout! Learn more

10-Day Weather Forecast

Advertisements
Track Severe Weather on mobile